createdAt,value
2022-12-11T00:00:26.854Z,97250.44
2022-12-11T00:02:55.326Z,97245.63
2022-12-11T00:05:22.233Z,97245.97
2022-12-11T00:07:49.262Z,97245.81
2022-12-11T00:10:16.285Z,97227.03
2022-12-11T00:12:43.215Z,97231.69
2022-12-11T00:15:12.184Z,97221.09
2022-12-11T00:17:39.416Z,97231.22
2022-12-11T00:20:06.991Z,97212.78
2022-12-11T00:22:34.391Z,97193.88
2022-12-11T00:25:01.325Z,97210.97
2022-12-11T00:27:28.579Z,97199.34
2022-12-11T00:29:55.649Z,97210.13
2022-12-11T00:32:22.617Z,97176.09
2022-12-11T00:34:49.655Z,97196.34
2022-12-11T00:37:16.686Z,97196.84
2022-12-11T00:39:43.724Z,97214.44
2022-12-11T00:42:10.698Z,97207.31
2022-12-11T00:44:37.836Z,97194.53
2022-12-11T00:47:04.779Z,97200.50
2022-12-11T00:49:31.828Z,97199.34
2022-12-11T00:51:58.849Z,97201.16
2022-12-11T00:54:25.823Z,97194.88
2022-12-11T00:56:52.759Z,97191.88
2022-12-11T00:59:19.728Z,97195.34
2022-12-11T01:01:46.686Z,97198.16
2022-12-11T01:04:13.638Z,97202.34
2022-12-11T01:06:40.688Z,97197.34
2022-12-11T01:09:25.942Z,97206.13
2022-12-11T01:11:52.984Z,97191.88
2022-12-11T01:14:20.294Z,97201.16
2022-12-11T01:16:47.331Z,97168.63
2022-12-11T01:19:14.334Z,97206.47
2022-12-11T01:21:41.691Z,97206.97
2022-12-11T01:24:08.688Z,97203.13
2022-12-11T01:26:36.273Z,97193.53
2022-12-11T01:29:03.782Z,97194.53
2022-12-11T01:31:30.765Z,97194.53
2022-12-11T01:33:57.649Z,97191.19
2022-12-11T01:36:24.891Z,97181.09
2022-12-11T01:38:53.823Z,97176.28
2022-12-11T01:41:21.447Z,97179.25
2022-12-11T01:44:07.518Z,97176.94
2022-12-11T01:46:36.536Z,97169.66
2022-12-11T01:49:07.690Z,97172.97
2022-12-11T01:51:40.230Z,97169.81
2022-12-11T01:54:11.553Z,97165.00
2022-12-11T01:56:42.474Z,97178.59
2022-12-11T01:59:10.438Z,97173.16
2022-12-11T02:01:43.096Z,97171.63
2022-12-11T02:04:11.614Z,97168.31
2022-12-11T02:07:00.529Z,97133.16
2022-12-11T02:09:50.867Z,97172.97
2022-12-11T02:12:40.605Z,97180.91
2022-12-11T02:15:42.651Z,97181.25
2022-12-11T02:18:30.476Z,97176.78
2022-12-11T02:21:45.766Z,97172.47
2022-12-11T02:24:46.774Z,97176.59
2022-12-11T02:27:58.236Z,97179.09
2022-12-11T02:30:26.065Z,97184.06
2022-12-11T02:32:56.753Z,97189.88
2022-12-11T02:35:33.765Z,97177.59
2022-12-11T02:38:10.848Z,97180.56
2022-12-11T02:40:41.608Z,97178.25
2022-12-11T02:43:12.373Z,97172.44
2022-12-11T02:45:41.821Z,97171.44
2022-12-11T02:48:11.551Z,97163.00
2022-12-11T02:50:43.355Z,97163.97
2022-12-11T02:53:13.558Z,97161.66
2022-12-11T02:55:47.259Z,97155.53
2022-12-11T02:58:24.400Z,97151.75
2022-12-11T03:00:51.693Z,97144.44
2022-12-11T03:03:19.119Z,97153.38
2022-12-11T03:05:46.595Z,97142.75
2022-12-11T03:08:19.037Z,97152.03
2022-12-11T03:10:46.597Z,97150.06
2022-12-11T03:13:16.215Z,97151.75
2022-12-11T03:16:25.025Z,97143.44
2022-12-11T03:19:23.103Z,97137.16
2022-12-11T03:22:23.157Z,97153.06
2022-12-11T03:25:01.350Z,97151.91
2022-12-11T03:27:39.799Z,97150.41
2022-12-11T03:30:14.581Z,97162.16
2022-12-11T03:32:53.679Z,97152.22
2022-12-11T03:35:40.702Z,97152.22
2022-12-11T03:38:19.061Z,97147.56
2022-12-11T03:40:49.207Z,97132.16
2022-12-11T03:43:18.391Z,97141.78
2022-12-11T03:45:49.410Z,97135.44
2022-12-11T03:48:17.799Z,97131.31
2022-12-11T03:50:48.112Z,97127.53
2022-12-11T03:53:16.442Z,97126.50
2022-12-11T03:55:43.876Z,97118.91
2022-12-11T03:58:11.059Z,97132.97
2022-12-11T04:00:38.667Z,97119.72
2022-12-11T04:03:15.009Z,97122.22
2022-12-11T04:05:44.827Z,97121.88
2022-12-11T04:08:11.950Z,97120.88
2022-12-11T04:10:41.236Z,97122.88
2022-12-11T04:13:09.242Z,97124.53
2022-12-11T04:15:37.671Z,97114.91
2022-12-11T04:18:24.224Z,97120.22
2022-12-11T04:21:13.156Z,97124.84
2022-12-11T04:23:58.432Z,97117.56
2022-12-11T04:26:25.564Z,97116.06
2022-12-11T04:28:52.452Z,97115.41
2022-12-11T04:31:22.402Z,97117.56
2022-12-11T04:33:49.981Z,97112.25
2022-12-11T04:36:17.340Z,97114.56
2022-12-11T04:38:44.227Z,97117.22
2022-12-11T04:41:13.880Z,97111.44
2022-12-11T04:43:41.434Z,97109.28
2022-12-11T04:46:11.909Z,97112.91
2022-12-11T04:48:39.782Z,97106.78
2022-12-11T04:51:07.545Z,97110.94
2022-12-11T04:53:35.423Z,97103.28
2022-12-11T04:56:05.967Z,97110.59
2022-12-11T04:58:33.130Z,97104.59
2022-12-11T05:01:00.057Z,97079.06
2022-12-11T05:03:27.189Z,97105.59
2022-12-11T05:05:54.362Z,97085.22
2022-12-11T05:08:22.327Z,97094.84
2022-12-11T05:11:04.162Z,97101.25
2022-12-11T05:13:31.552Z,97102.28
2022-12-11T05:15:59.498Z,97092.66
2022-12-11T05:18:26.985Z,97097.63
2022-12-11T05:21:06.026Z,97095.97
2022-12-11T05:23:33.549Z,97089.03
2022-12-11T05:26:03.110Z,97099.31
2022-12-11T05:28:34.018Z,97088.19
2022-12-11T05:31:04.826Z,97089.03
2022-12-11T05:33:32.141Z,97072.28
2022-12-11T05:35:59.373Z,97090.38
2022-12-11T05:38:26.743Z,97079.25
2022-12-11T05:41:04.450Z,97086.38
2022-12-11T05:43:33.898Z,97085.69
2022-12-11T05:46:11.579Z,97079.91
2022-12-11T05:48:39.372Z,97083.22
2022-12-11T05:51:07.336Z,97078.91
2022-12-11T05:53:35.850Z,97091.66
2022-12-11T05:56:08.415Z,97090.00
2022-12-11T05:58:36.158Z,97095.81
2022-12-11T06:01:08.037Z,97088.84
2022-12-11T06:03:35.034Z,97077.25
2022-12-11T06:06:03.488Z,97082.53
2022-12-11T06:08:30.796Z,97083.88
2022-12-11T06:10:57.972Z,97084.72
2022-12-11T06:13:25.115Z,97077.41
2022-12-11T06:15:52.161Z,97091.34
2022-12-11T06:18:19.174Z,97091.00
2022-12-11T06:20:46.231Z,97091.16
2022-12-11T06:23:13.260Z,97086.34
2022-12-11T06:25:42.075Z,97091.97
2022-12-11T06:28:09.140Z,97094.97
2022-12-11T06:30:39.285Z,97104.56
2022-12-11T06:33:07.530Z,97102.06
2022-12-11T06:35:40.299Z,97097.13
2022-12-11T06:38:09.409Z,97101.88
2022-12-11T06:40:36.390Z,97106.19
2022-12-11T06:43:03.770Z,97105.88
2022-12-11T06:45:31.091Z,97104.56
2022-12-11T06:47:59.156Z,97105.88
2022-12-11T06:50:26.473Z,97122.44
2022-12-11T06:52:53.461Z,97107.19
2022-12-11T06:55:20.484Z,97107.84
2022-12-11T06:57:47.333Z,97117.78
2022-12-11T07:00:15.040Z,97108.69
2022-12-11T07:02:42.070Z,97113.81
2022-12-11T07:05:09.735Z,97102.91
2022-12-11T07:07:36.858Z,97118.47
2022-12-11T07:10:08.243Z,97111.16
2022-12-11T07:12:36.672Z,97103.91
2022-12-11T07:15:04.963Z,97105.22
2022-12-11T07:17:32.488Z,97103.91
2022-12-11T07:19:59.472Z,97108.00
2022-12-11T07:22:26.400Z,97119.16
2022-12-11T07:24:53.348Z,97115.97
2022-12-11T07:27:20.312Z,97119.47
2022-12-11T07:29:47.237Z,97129.56
2022-12-11T07:32:14.760Z,97124.91
2022-12-11T07:34:41.794Z,97137.00
2022-12-11T07:37:09.275Z,97121.38
2022-12-11T07:39:36.174Z,97137.34
2022-12-11T07:42:03.098Z,97138.28
2022-12-11T07:44:29.962Z,97140.75
2022-12-11T07:46:56.889Z,97136.81
2022-12-11T07:49:23.912Z,97126.31
2022-12-11T07:51:50.876Z,97146.56
2022-12-11T07:54:18.036Z,97140.00
2022-12-11T07:56:49.773Z,97140.75
2022-12-11T07:59:19.971Z,97145.06
2022-12-11T08:01:47.041Z,97146.72
2022-12-11T08:04:16.073Z,97143.44
2022-12-11T08:06:43.923Z,97135.97
2022-12-11T08:09:20.381Z,97127.69
2022-12-11T08:11:50.819Z,97134.34
2022-12-11T08:14:18.526Z,97145.09
2022-12-11T08:16:45.643Z,97145.22
2022-12-11T08:19:13.360Z,97139.94
2022-12-11T08:21:40.800Z,97127.81
2022-12-11T08:24:08.606Z,97136.72
2022-12-11T08:26:35.620Z,97139.19
2022-12-11T08:29:02.991Z,97138.88
2022-12-11T08:31:30.361Z,97143.84
2022-12-11T08:33:57.981Z,97143.34
2022-12-11T08:36:25.337Z,97146.44
2022-12-11T08:38:52.671Z,97142.50
2022-12-11T08:41:25.586Z,97136.88
2022-12-11T08:43:55.623Z,97131.94
2022-12-11T08:46:24.801Z,97135.56
2022-12-11T08:48:52.258Z,97139.50
2022-12-11T08:51:23.010Z,97138.81
2022-12-11T08:53:51.376Z,97146.13
2022-12-11T08:56:20.816Z,97148.63
2022-12-11T08:58:48.116Z,97144.31
2022-12-11T09:01:18.549Z,97141.19
2022-12-11T09:03:45.521Z,97139.16
2022-12-11T09:06:15.423Z,97143.00
2022-12-11T09:08:48.589Z,97140.22
2022-12-11T09:11:21.917Z,97137.84
2022-12-11T09:13:49.466Z,97137.00
2022-12-11T09:16:19.658Z,97136.16
2022-12-11T09:18:48.757Z,97132.88
2022-12-11T09:21:19.310Z,97119.66
2022-12-11T09:23:47.468Z,97121.66
2022-12-11T09:26:17.532Z,97120.97
2022-12-11T09:28:46.917Z,97118.19
2022-12-11T09:31:23.824Z,97116.03
2022-12-11T09:33:54.222Z,97115.06
2022-12-11T09:36:21.150Z,97113.00
2022-12-11T09:38:48.309Z,97115.38
2022-12-11T09:41:18.089Z,97107.56
2022-12-11T09:43:51.067Z,97123.31
2022-12-11T09:46:18.341Z,97096.75
2022-12-11T09:48:48.516Z,97122.53
2022-12-11T09:51:37.703Z,97119.41
2022-12-11T09:54:05.300Z,97123.56
2022-12-11T09:56:37.343Z,97114.72
2022-12-11T09:59:29.095Z,97108.13
2022-12-11T10:01:55.949Z,97111.56
2022-12-11T10:04:22.794Z,97117.59
2022-12-11T10:07:07.222Z,97100.34
2022-12-11T10:09:46.265Z,97117.78
2022-12-11T10:12:24.070Z,97112.53
2022-12-11T10:15:35.666Z,97120.38
2022-12-11T10:18:07.342Z,97112.56
2022-12-11T10:20:39.569Z,97116.41
2022-12-11T10:23:09.565Z,97107.59
2022-12-11T10:25:41.056Z,97115.50
2022-12-11T10:28:15.095Z,97125.94
2022-12-11T10:30:59.035Z,97113.06
2022-12-11T10:33:32.469Z,97114.09
2022-12-11T10:35:59.698Z,97100.97
2022-12-11T10:38:38.557Z,97104.13
2022-12-11T10:41:15.701Z,97107.91
2022-12-11T10:43:49.426Z,97094.28
2022-12-11T10:46:26.969Z,97104.13
2022-12-11T10:48:58.431Z,97094.84
2022-12-11T10:51:33.220Z,97111.72
2022-12-11T10:54:26.256Z,97100.50
2022-12-11T10:56:54.332Z,97097.50
2022-12-11T10:59:49.871Z,97096.69
2022-12-11T11:02:32.907Z,97087.63
2022-12-11T11:05:01.992Z,97093.88
2022-12-11T11:07:32.154Z,97085.19
2022-12-11T11:10:12.659Z,97084.53
2022-12-11T11:12:42.997Z,97075.81
2022-12-11T11:15:16.857Z,97063.34
2022-12-11T11:17:54.990Z,97066.91
2022-12-11T11:20:28.626Z,97058.47
2022-12-11T11:22:59.529Z,97052.75
2022-12-11T11:25:29.537Z,97064.41
2022-12-11T11:28:07.680Z,97061.13
2022-12-11T11:30:39.252Z,97058.63
2022-12-11T11:33:13.870Z,97063.09
2022-12-11T11:35:53.052Z,97060.94
2022-12-11T11:38:24.560Z,97066.66
2022-12-11T11:41:18.895Z,97063.22
2022-12-11T11:44:03.601Z,97073.28
2022-12-11T11:46:38.509Z,97070.63
2022-12-11T11:49:46.874Z,97073.75
2022-12-11T11:52:53.283Z,97066.66
2022-12-11T11:55:53.809Z,97070.88
2022-12-11T11:58:33.637Z,97068.69
2022-12-11T12:01:00.942Z,97071.22
2022-12-11T12:03:30.183Z,97070.00
2022-12-11T12:06:18.359Z,97072.16
2022-12-11T12:09:03.660Z,97073.69
2022-12-11T12:11:54.321Z,97078.19
2022-12-11T12:14:54.208Z,97074.97
2022-12-11T12:17:43.116Z,97083.88
2022-12-11T12:20:17.837Z,97063.75
2022-12-11T12:23:22.049Z,97071.53
2022-12-11T12:25:58.006Z,97076.13
2022-12-11T12:28:46.012Z,97063.41
2022-12-11T12:31:16.342Z,97060.03
2022-12-11T12:34:02.246Z,97065.44
2022-12-11T12:36:50.802Z,97076.00
2022-12-11T12:39:42.636Z,97069.56
2022-12-11T12:42:31.515Z,97075.50
2022-12-11T12:45:28.031Z,97080.47
2022-12-11T12:47:55.090Z,97087.13
2022-12-11T12:50:27.186Z,97085.00
2022-12-11T12:52:56.351Z,97085.63
2022-12-11T12:55:29.959Z,97078.50
2022-12-11T12:58:02.227Z,97087.94
2022-12-11T13:00:42.233Z,97096.66
2022-12-11T13:03:20.589Z,97097.50
2022-12-11T13:06:25.298Z,97088.72
2022-12-11T13:08:52.874Z,97092.56
2022-12-11T13:11:21.910Z,97103.13
2022-12-11T13:14:04.577Z,97108.78
2022-12-11T13:16:41.957Z,97105.75
2022-12-11T13:19:23.971Z,97100.94
2022-12-11T13:22:12.717Z,97104.13
2022-12-11T13:24:53.514Z,97102.78
2022-12-11T13:27:30.814Z,97112.34
2022-12-11T13:30:23.898Z,97114.06
2022-12-11T13:33:14.530Z,97115.31
2022-12-11T13:35:43.343Z,97118.44
2022-12-11T13:38:20.364Z,97112.06
2022-12-11T13:40:53.390Z,97118.34
2022-12-11T13:43:27.610Z,97112.69
2022-12-11T13:46:04.249Z,97118.91
2022-12-11T13:48:54.258Z,97116.91
2022-12-11T13:51:26.758Z,97119.53
2022-12-11T13:54:18.195Z,97121.31
2022-12-11T13:57:21.595Z,97126.13
2022-12-11T13:59:56.307Z,97121.44
2022-12-11T14:02:29.731Z,97126.41
2022-12-11T14:05:01.280Z,97132.75
2022-12-11T14:07:42.632Z,97124.16
2022-12-11T14:10:24.312Z,97124.53
2022-12-11T14:12:54.128Z,97130.66
2022-12-11T14:15:21.936Z,97130.34
2022-12-11T14:17:51.949Z,97137.00
2022-12-11T14:20:31.232Z,97142.59
2022-12-11T14:23:16.411Z,97147.56
2022-12-11T14:25:51.838Z,97139.63
2022-12-11T14:28:18.889Z,97145.84
2022-12-11T14:30:50.097Z,97136.56
2022-12-11T14:33:19.127Z,97132.41
2022-12-11T14:35:47.499Z,97132.78
2022-12-11T14:38:20.377Z,97124.16
2022-12-11T14:40:52.040Z,97125.16
2022-12-11T14:43:28.077Z,97134.22
2022-12-11T14:45:59.634Z,97123.97
2022-12-11T14:48:35.722Z,97131.59
2022-12-11T14:51:07.673Z,97138.75
2022-12-11T14:53:44.256Z,97132.63
2022-12-11T14:56:18.199Z,97127.66
2022-12-11T14:58:56.141Z,97134.97
2022-12-11T15:01:32.821Z,97138.81
2022-12-11T15:04:22.403Z,97133.25
2022-12-11T15:06:51.814Z,97134.22
2022-12-11T15:09:37.600Z,97131.06
2022-12-11T15:12:14.515Z,97126.63
2022-12-11T15:14:53.408Z,97134.38
2022-12-11T15:17:23.049Z,97130.66
2022-12-11T15:19:57.302Z,97139.38
2022-12-11T15:22:29.092Z,97142.63
2022-12-11T15:24:57.469Z,97139.50
2022-12-11T15:27:35.845Z,97145.72
2022-12-11T15:30:14.922Z,97141.56
2022-12-11T15:32:42.015Z,97152.22
2022-12-11T15:35:26.628Z,97155.38
2022-12-11T15:37:55.234Z,97150.59
2022-12-11T15:40:22.953Z,97156.34
2022-12-11T15:42:51.268Z,97158.47
2022-12-11T15:45:21.053Z,97160.59
2022-12-11T15:47:50.164Z,97157.72
2022-12-11T15:50:19.690Z,97156.59
2022-12-11T15:52:46.957Z,97160.16
2022-12-11T15:55:14.734Z,97150.22
2022-12-11T15:57:54.373Z,97171.84
2022-12-11T16:00:22.074Z,97168.81
2022-12-11T16:02:49.019Z,97171.16
2022-12-11T16:05:16.380Z,97179.47
2022-12-11T16:07:43.336Z,97157.56
2022-12-11T16:10:16.314Z,97175.00
2022-12-11T16:12:43.787Z,97178.47
2022-12-11T16:15:15.306Z,97165.03
2022-12-11T16:17:44.556Z,97173.19
2022-12-11T16:20:13.711Z,97160.34
2022-12-11T16:22:41.078Z,97180.06
2022-12-11T16:25:08.350Z,97175.59
2022-12-11T16:27:35.427Z,97183.66
2022-12-11T16:30:02.679Z,97178.25
2022-12-11T16:32:29.824Z,97190.69
2022-12-11T16:35:00.938Z,97189.59
2022-12-11T16:37:28.472Z,97189.47
2022-12-11T16:39:55.533Z,97189.03
2022-12-11T16:42:22.528Z,97182.56
2022-12-11T16:44:49.495Z,97189.34
2022-12-11T16:47:16.438Z,97192.50
2022-12-11T16:49:43.650Z,97189.19
2022-12-11T16:52:16.442Z,97169.09
2022-12-11T16:54:47.382Z,97177.81
2022-12-11T16:57:14.280Z,97190.69
2022-12-11T16:59:41.181Z,97196.81
2022-12-11T17:02:08.117Z,97188.13
2022-12-11T17:04:35.114Z,97199.59
2022-12-11T17:07:06.492Z,97203.06
2022-12-11T17:09:33.609Z,97203.91
2022-12-11T17:12:03.216Z,97181.72
2022-12-11T17:14:30.112Z,97198.03
2022-12-11T17:16:57.333Z,97200.38
2022-12-11T17:19:24.411Z,97192.06
2022-12-11T17:21:52.103Z,97159.50
2022-12-11T17:24:19.048Z,97193.06
2022-12-11T17:26:46.614Z,97186.56
2022-12-11T17:29:13.967Z,97193.81
2022-12-11T17:31:42.448Z,97190.78
2022-12-11T17:34:09.381Z,97199.47
2022-12-11T17:36:36.306Z,97175.78
2022-12-11T17:39:03.329Z,97192.44
2022-12-11T17:41:30.299Z,97191.06
2022-12-11T17:43:58.467Z,97193.19
2022-12-11T17:46:25.600Z,97196.34
2022-12-11T17:48:52.597Z,97196.03
2022-12-11T17:51:24.697Z,97194.53
2022-12-11T17:53:52.444Z,97205.25
2022-12-11T17:56:19.380Z,97201.72
2022-12-11T17:58:46.349Z,97210.03
2022-12-11T18:01:13.884Z,97204.44
2022-12-11T18:03:41.814Z,97165.94
2022-12-11T18:06:12.976Z,97206.56
2022-12-11T18:08:40.511Z,97208.31
2022-12-11T18:11:13.344Z,97214.13
2022-12-11T18:13:40.894Z,97214.28
2022-12-11T18:16:18.476Z,97203.06
2022-12-11T18:18:47.530Z,97204.88
2022-12-11T18:21:17.411Z,97209.06
2022-12-11T18:23:45.457Z,97206.41
2022-12-11T18:26:14.798Z,97205.97
2022-12-11T18:28:42.944Z,97197.66
2022-12-11T18:31:10.849Z,97200.69
2022-12-11T18:33:39.378Z,97211.53
2022-12-11T18:36:07.390Z,97201.97
2022-12-11T18:38:35.521Z,97201.13
2022-12-11T18:41:04.559Z,97198.63
2022-12-11T18:43:31.686Z,97167.25
2022-12-11T18:45:58.661Z,97183.97
2022-12-11T18:48:27.730Z,97199.22
2022-12-11T18:50:54.753Z,97199.88
2022-12-11T18:53:24.816Z,97200.09
2022-12-11T18:55:55.813Z,97195.56
2022-12-11T18:58:25.689Z,97201.09
2022-12-11T19:00:52.660Z,97200.09
2022-12-11T19:03:19.637Z,97202.06
2022-12-11T19:05:46.563Z,97190.16
2022-12-11T19:08:14.205Z,97198.09
2022-12-11T19:10:47.143Z,97198.63
2022-12-11T19:13:14.250Z,97215.63
2022-12-11T19:15:42.921Z,97210.38
2022-12-11T19:18:10.507Z,97204.50
2022-12-11T19:20:49.129Z,97212.00
2022-12-11T19:23:18.004Z,97210.88
2022-12-11T19:25:46.622Z,97207.66
2022-12-11T19:28:14.270Z,97208.63
2022-12-11T19:30:52.069Z,97202.25
2022-12-11T19:33:18.992Z,97201.63
2022-12-11T19:35:46.007Z,97202.22
2022-12-11T19:38:13.201Z,97209.66
2022-12-11T19:40:44.904Z,97205.06
2022-12-11T19:43:12.205Z,97197.72
2022-12-11T19:45:39.267Z,97205.78
2022-12-11T19:48:06.417Z,97215.66
2022-12-11T19:50:36.497Z,97213.91
2022-12-11T19:53:04.539Z,97202.22
2022-12-11T19:55:31.557Z,97206.66
2022-12-11T19:57:58.504Z,97204.00
2022-12-11T20:00:25.726Z,97197.38
2022-12-11T20:02:52.634Z,97196.94
2022-12-11T20:05:19.572Z,97197.31
2022-12-11T20:07:46.658Z,97194.41
2022-12-11T20:10:13.676Z,97206.78
2022-12-11T20:12:40.633Z,97205.84
2022-12-11T20:15:08.038Z,97213.03
2022-12-11T20:17:36.961Z,97208.81
2022-12-11T20:20:04.100Z,97210.34
2022-12-11T20:22:31.158Z,97203.31
2022-12-11T20:24:58.052Z,97209.22
2022-12-11T20:27:26.339Z,97207.16
2022-12-11T20:29:53.366Z,97218.22
2022-12-11T20:32:21.447Z,97214.97
2022-12-11T20:34:48.586Z,97218.50
2022-12-11T20:37:15.530Z,97217.09
2022-12-11T20:39:42.445Z,97221.53
2022-12-11T20:42:10.170Z,97215.47
2022-12-11T20:44:37.287Z,97211.84
2022-12-11T20:47:04.427Z,97218.38
2022-12-11T20:49:31.414Z,97219.59
2022-12-11T20:51:59.740Z,97216.25
2022-12-11T20:54:27.638Z,97208.03
2022-12-11T20:56:54.630Z,97208.81
2022-12-11T20:59:21.617Z,97215.19
2022-12-11T21:01:50.030Z,97208.63
2022-12-11T21:04:16.992Z,97210.00
2022-12-11T21:06:44.229Z,97205.25
2022-12-11T21:09:19.240Z,97210.38
2022-12-11T21:11:46.458Z,97204.63
2022-12-11T21:14:14.258Z,97200.31
2022-12-11T21:16:41.620Z,97211.31
2022-12-11T21:19:12.460Z,97202.25
2022-12-11T21:21:45.428Z,97211.53
2022-12-11T21:24:19.027Z,97218.09
2022-12-11T21:26:47.132Z,97210.03
2022-12-11T21:29:14.571Z,97202.97
2022-12-11T21:31:42.167Z,97211.53
2022-12-11T21:34:09.239Z,97207.22
2022-12-11T21:36:36.239Z,97207.16
2022-12-11T21:39:04.593Z,97201.28
2022-12-11T21:41:31.580Z,97211.28
2022-12-11T21:46:45.493Z,97216.25
2022-12-11T21:49:12.532Z,97218.44
2022-12-11T21:51:46.792Z,97203.34
2022-12-11T21:54:17.604Z,97181.31
2022-12-11T21:56:45.511Z,97217.34
2022-12-11T21:59:12.601Z,97219.53
2022-12-11T22:01:42.673Z,97209.78
2022-12-11T22:04:11.480Z,97215.22
2022-12-11T22:06:40.168Z,97210.78
2022-12-11T22:09:07.057Z,97211.75
2022-12-11T22:11:35.682Z,97209.78
2022-12-11T22:14:03.012Z,97207.13
2022-12-11T22:16:30.741Z,97209.78
2022-12-11T22:18:57.684Z,97207.97
2022-12-11T22:21:24.631Z,97198.41
2022-12-11T22:23:51.591Z,97202.03
2022-12-11T22:26:23.067Z,97204.81
2022-12-11T22:28:51.031Z,97207.44
2022-12-11T22:31:20.764Z,97210.78
2022-12-11T22:33:50.340Z,97204.13
2022-12-11T22:36:20.936Z,97203.13
2022-12-11T22:38:48.122Z,97206.78
2022-12-11T22:41:22.757Z,97203.97
2022-12-11T22:43:50.070Z,97205.09
2022-12-11T22:46:19.280Z,97208.28
2022-12-11T22:48:46.415Z,97211.88
2022-12-11T22:51:13.637Z,97208.41
2022-12-11T22:53:40.628Z,97206.47
2022-12-11T22:56:10.360Z,97193.94
2022-12-11T22:58:37.452Z,97198.09
2022-12-11T23:01:10.896Z,97191.69
2022-12-11T23:03:39.167Z,97169.00
2022-12-11T23:06:11.942Z,97189.88
2022-12-11T23:08:40.015Z,97189.03
2022-12-11T23:11:31.999Z,97190.25
2022-12-11T23:13:58.940Z,97184.13
2022-12-11T23:16:27.256Z,97191.09
2022-12-11T23:18:55.656Z,97187.47
2022-12-11T23:21:23.568Z,97185.09
2022-12-11T23:23:51.055Z,97193.59
2022-12-11T23:26:19.559Z,97199.84
2022-12-11T23:28:47.725Z,97198.88
2022-12-11T23:31:16.167Z,97198.03
2022-12-11T23:33:43.153Z,97156.19
2022-12-11T23:36:10.703Z,97182.47
2022-12-11T23:38:38.658Z,97199.41
2022-12-11T23:41:07.038Z,97178.25
2022-12-11T23:43:37.874Z,97193.94
2022-12-11T23:46:07.725Z,97197.44
2022-12-11T23:48:34.835Z,97185.22
2022-12-11T23:51:03.586Z,97186.56
2022-12-11T23:53:30.679Z,97185.56
2022-12-11T23:56:03.460Z,97182.94
2022-12-11T23:58:30.321Z,97181.97
